createdAt,value
2023-09-28T00:00:27.554Z,94109.74
2023-09-28T00:01:23.758Z,94102.63
2023-09-28T00:01:57.511Z,94100.55
2023-09-28T00:02:31.446Z,94092.80
2023-09-28T00:03:07.137Z,94105.42
2023-09-28T00:03:41.532Z,94103.02
2023-09-28T00:04:15.312Z,94102.65
2023-09-28T00:04:48.763Z,94102.17
2023-09-28T00:05:22.801Z,94100.41
2023-09-28T00:05:56.419Z,94102.66
2023-09-28T00:06:30.429Z,94099.05
2023-09-28T00:07:04.110Z,94084.06
2023-09-28T00:07:37.936Z,94100.18
2023-09-28T00:08:11.564Z,94099.66
2023-09-28T00:08:45.159Z,94100.02
2023-09-28T00:09:18.879Z,94098.52
2023-09-28T00:09:52.616Z,94101.70
2023-09-28T00:10:26.140Z,94101.64
2023-09-28T00:11:00.791Z,94103.86
2023-09-28T00:11:34.223Z,94099.19
2023-09-28T00:12:07.747Z,94101.83
2023-09-28T00:12:51.811Z,94102.83
2023-09-28T00:13:25.523Z,94095.23
2023-09-28T00:14:01.205Z,94103.80
2023-09-28T00:14:38.331Z,94085.47
2023-09-28T00:15:13.733Z,94105.38
2023-09-28T00:15:48.299Z,94103.54
2023-09-28T00:16:21.927Z,94108.06
2023-09-28T00:16:56.628Z,94106.54
2023-09-28T00:17:30.385Z,94109.70
2023-09-28T00:18:05.370Z,94103.44
2023-09-28T00:18:38.850Z,94105.80
2023-09-28T00:19:12.461Z,94105.17
2023-09-28T00:19:45.894Z,94105.02
2023-09-28T00:20:21.741Z,94101.03
2023-09-28T00:20:55.288Z,94103.69
2023-09-28T00:21:28.814Z,94102.54
2023-09-28T00:22:02.186Z,94103.17
2023-09-28T00:22:36.204Z,94107.13
2023-09-28T00:23:09.810Z,94106.73
2023-09-28T00:23:43.261Z,94105.36
2023-09-28T00:24:16.701Z,94104.58
2023-09-28T00:24:50.088Z,94103.58
2023-09-28T00:25:24.932Z,94106.20
2023-09-28T00:25:58.942Z,94105.04
2023-09-28T00:26:32.621Z,94107.35
2023-09-28T00:27:07.005Z,94107.20
2023-09-28T00:27:41.535Z,94108.55
2023-09-28T00:28:15.123Z,94108.27
2023-09-28T00:28:49.826Z,94106.68
2023-09-28T00:29:23.406Z,94107.38
2023-09-28T00:29:57.535Z,94089.08
2023-09-28T00:30:31.840Z,94111.35
2023-09-28T00:31:06.950Z,94108.92
2023-09-28T00:31:40.675Z,94109.06
2023-09-28T00:32:14.437Z,94096.64
2023-09-28T00:32:49.050Z,94107.64
2023-09-28T00:33:22.748Z,94109.13
2023-09-28T00:33:56.588Z,94113.41
2023-09-28T00:34:30.305Z,94114.58
2023-09-28T00:35:05.755Z,94110.45
2023-09-28T00:35:40.037Z,94105.77
2023-09-28T00:36:13.889Z,94111.08
2023-09-28T00:36:47.744Z,94098.98
2023-09-28T00:37:21.288Z,94111.70
2023-09-28T00:37:55.080Z,94108.90
2023-09-28T00:38:28.842Z,94112.15
2023-09-28T00:39:02.590Z,94109.09
2023-09-28T00:39:36.831Z,94112.87
2023-09-28T00:40:22.655Z,94110.23
2023-09-28T00:40:56.342Z,94113.38
2023-09-28T00:41:30.120Z,94102.66
2023-09-28T00:42:06.728Z,94098.23
2023-09-28T00:42:40.385Z,94110.61
2023-09-28T00:43:13.929Z,94109.23
2023-09-28T00:43:47.547Z,94108.67
2023-09-28T00:44:21.104Z,94107.36
2023-09-28T00:44:54.732Z,94108.77
2023-09-28T00:45:29.732Z,94111.66
2023-09-28T00:46:04.644Z,94110.66
2023-09-28T00:46:39.096Z,94109.41
2023-09-28T00:47:13.053Z,94108.48
2023-09-28T00:47:47.470Z,94110.29
2023-09-28T00:48:21.845Z,94108.09
2023-09-28T00:49:06.734Z,94108.94
2023-09-28T00:49:40.591Z,94109.65
2023-09-28T00:50:17.530Z,94113.58
2023-09-28T00:50:53.079Z,94110.13
2023-09-28T00:51:29.229Z,94111.66
2023-09-28T00:52:02.797Z,94110.63
2023-09-28T00:52:42.232Z,94110.20
2023-09-28T00:53:16.175Z,94109.63
2023-09-28T00:53:49.663Z,94108.94
2023-09-28T00:54:23.347Z,94108.19
2023-09-28T00:55:00.498Z,94107.07
2023-09-28T00:55:34.285Z,94089.67
2023-09-28T00:56:09.215Z,94107.76
2023-09-28T00:56:43.441Z,94105.52
2023-09-28T00:57:19.003Z,94108.03
2023-09-28T00:57:53.290Z,94107.48
2023-09-28T00:58:26.825Z,94106.67
2023-09-28T00:59:01.468Z,94106.48
2023-09-28T00:59:35.292Z,94092.59
2023-09-28T01:00:25.229Z,94105.81
2023-09-28T01:01:01.810Z,94104.05
2023-09-28T01:01:35.514Z,94103.51
2023-09-28T01:02:09.615Z,94103.45
2023-09-28T01:02:44.982Z,94102.60
2023-09-28T01:03:18.769Z,94107.04
2023-09-28T01:03:52.742Z,94105.39
2023-09-28T01:04:27.807Z,94106.80
2023-09-28T01:05:01.437Z,94105.89
2023-09-28T01:05:35.940Z,94086.75
2023-09-28T01:06:09.518Z,94105.98
2023-09-28T01:06:43.258Z,94105.48
2023-09-28T01:07:27.471Z,94090.98
2023-09-28T01:08:13.133Z,94096.20
2023-09-28T01:08:46.748Z,94110.31
2023-09-28T01:09:20.222Z,94107.92
2023-09-28T01:09:54.998Z,94106.67
2023-09-28T01:10:30.925Z,94107.58
2023-09-28T01:11:06.629Z,94109.45
2023-09-28T01:11:42.155Z,94105.65
2023-09-28T01:12:16.393Z,94109.42
2023-09-28T01:12:50.231Z,94096.04
2023-09-28T01:13:25.459Z,94109.09
2023-09-28T01:13:59.521Z,94109.57
2023-09-28T01:14:34.327Z,94110.83
2023-09-28T01:15:12.646Z,94112.92
2023-09-28T01:15:50.906Z,94101.54
2023-09-28T01:16:25.140Z,94110.69
2023-09-28T01:17:00.020Z,94112.98
2023-09-28T01:17:34.012Z,94108.64
2023-09-28T01:18:18.332Z,94108.84
2023-09-28T01:18:52.073Z,94112.81
2023-09-28T01:19:25.651Z,94114.52
2023-09-28T01:20:01.058Z,94114.73
2023-09-28T01:20:39.121Z,94114.61
2023-09-28T01:21:12.920Z,94107.58
2023-09-28T01:21:46.552Z,94111.80
2023-09-28T01:22:20.052Z,94111.34
2023-09-28T01:22:55.288Z,94088.92
2023-09-28T01:23:28.734Z,94113.79
2023-09-28T01:24:04.090Z,94112.72
2023-09-28T01:24:38.062Z,94113.88
2023-09-28T01:25:12.725Z,94116.45
2023-09-28T01:25:48.877Z,94116.69
2023-09-28T01:26:23.047Z,94117.92
2023-09-28T01:26:56.620Z,94115.30
2023-09-28T01:27:30.322Z,94115.26
2023-09-28T01:28:05.223Z,94116.77
2023-09-28T01:28:39.983Z,94116.85
2023-09-28T01:29:13.527Z,94117.08
2023-09-28T01:29:47.136Z,94116.41
2023-09-28T01:30:20.831Z,94117.20
2023-09-28T01:30:54.650Z,94116.24
2023-09-28T01:31:29.161Z,94114.09
2023-09-28T01:32:03.551Z,94114.06
2023-09-28T01:32:37.961Z,94116.48
2023-09-28T01:33:11.715Z,94106.84
2023-09-28T01:33:45.503Z,94114.73
2023-09-28T01:34:19.216Z,94117.71
2023-09-28T01:34:52.937Z,94103.13
2023-09-28T01:35:28.796Z,94117.86
2023-09-28T01:36:02.584Z,94116.16
2023-09-28T01:36:36.596Z,94118.22
2023-09-28T01:37:10.566Z,94119.20
2023-09-28T01:37:52.950Z,94110.66
2023-09-28T01:39:02.896Z,94117.48
2023-09-28T01:39:36.962Z,94114.11
2023-09-28T01:40:11.049Z,94119.48
2023-09-28T01:40:45.669Z,94118.76
2023-09-28T01:41:19.286Z,94119.44
2023-09-28T01:41:52.902Z,94118.05
2023-09-28T01:42:26.687Z,94118.99
2023-09-28T01:43:00.402Z,94119.52
2023-09-28T01:43:36.593Z,94112.89
2023-09-28T01:44:10.417Z,94114.67
2023-09-28T01:44:44.263Z,94119.35
2023-09-28T01:45:18.735Z,94118.50
2023-09-28T01:45:52.490Z,94116.45
2023-09-28T01:46:26.204Z,94117.38
2023-09-28T01:46:59.945Z,94119.25
2023-09-28T01:47:33.854Z,94117.52
2023-09-28T01:48:08.105Z,94120.03
2023-09-28T01:48:41.930Z,94117.61
2023-09-28T01:50:44.732Z,94120.30
2023-09-28T01:51:18.229Z,94121.61
2023-09-28T01:51:51.674Z,94117.88
2023-09-28T01:52:25.167Z,94118.11
2023-09-28T01:52:58.711Z,94120.80
2023-09-28T01:53:32.153Z,94119.02
2023-09-28T01:54:06.217Z,94121.73
2023-09-28T01:54:39.681Z,94119.27
2023-09-28T01:55:13.279Z,94118.29
2023-09-28T01:55:48.697Z,94119.45
2023-09-28T01:56:22.770Z,94118.10
2023-09-28T01:56:56.439Z,94120.84
2023-09-28T01:57:30.029Z,94113.66
2023-09-28T01:58:09.398Z,94118.49
2023-09-28T01:58:42.951Z,94116.39
2023-09-28T01:59:16.476Z,94111.77
2023-09-28T01:59:49.989Z,94114.05
2023-09-28T02:00:26.601Z,94116.98
2023-09-28T02:01:00.148Z,94114.60
2023-09-28T02:01:33.810Z,94119.12
2023-09-28T02:02:07.388Z,94117.70
2023-09-28T02:02:41.330Z,94116.86
2023-09-28T02:03:16.548Z,94118.43
2023-09-28T02:03:50.043Z,94118.42
2023-09-28T02:04:24.223Z,94115.39
2023-09-28T02:04:58.174Z,94108.30
2023-09-28T02:05:34.178Z,94121.58
2023-09-28T02:06:07.734Z,94118.50
2023-09-28T02:06:41.080Z,94114.56
2023-09-28T02:07:15.805Z,94114.47
2023-09-28T02:07:50.374Z,94112.13
2023-09-28T02:08:23.825Z,94114.33
2023-09-28T02:08:57.135Z,94109.86
2023-09-28T02:09:30.631Z,94110.71
2023-09-28T02:10:06.001Z,94111.53
2023-09-28T02:10:39.503Z,94111.96
2023-09-28T02:11:13.048Z,94112.05
2023-09-28T02:11:46.717Z,94112.81
2023-09-28T02:12:20.941Z,94114.45
2023-09-28T02:12:54.608Z,94110.76
2023-09-28T02:13:28.029Z,94113.18
2023-09-28T02:14:01.871Z,94110.55
2023-09-28T02:14:35.508Z,94112.27
2023-09-28T02:15:11.313Z,94111.79
2023-09-28T02:15:44.947Z,94112.23
2023-09-28T02:16:18.952Z,94110.76
2023-09-28T02:16:52.590Z,94109.35
2023-09-28T02:17:26.086Z,94110.73
2023-09-28T02:17:59.634Z,94114.36
2023-09-28T02:18:33.210Z,94113.16
2023-09-28T02:19:07.109Z,94116.00
2023-09-28T02:19:40.644Z,94113.36
2023-09-28T02:20:17.320Z,94112.83
2023-09-28T02:20:51.126Z,94116.54
2023-09-28T02:21:24.590Z,94114.85
2023-09-28T02:21:58.379Z,94113.69
2023-09-28T02:22:31.914Z,94117.84
2023-09-28T02:23:05.497Z,94116.00
2023-09-28T02:23:38.784Z,94119.71
2023-09-28T02:24:12.621Z,94120.32
2023-09-28T02:24:48.290Z,94120.38
2023-09-28T02:25:25.358Z,94120.96
2023-09-28T02:26:06.935Z,94121.38
2023-09-28T02:26:40.464Z,94123.66
2023-09-28T02:27:14.622Z,94121.16
2023-09-28T02:27:49.188Z,94120.55
2023-09-28T02:28:22.661Z,94122.04
2023-09-28T02:28:56.098Z,94123.17
2023-09-28T02:29:29.570Z,94124.52
2023-09-28T02:30:04.722Z,94124.00
2023-09-28T02:30:38.046Z,94127.04
2023-09-28T02:31:11.488Z,94127.36
2023-09-28T02:31:45.133Z,94127.73
2023-09-28T02:32:18.737Z,94126.66
2023-09-28T02:32:53.770Z,94128.80
2023-09-28T02:33:27.282Z,94129.80
2023-09-28T02:34:00.863Z,94128.98
2023-09-28T02:34:34.863Z,94116.48
2023-09-28T02:35:08.902Z,94133.52
2023-09-28T02:35:42.216Z,94130.34
2023-09-28T02:36:16.322Z,94130.18
2023-09-28T02:36:49.826Z,94126.92
2023-09-28T02:37:23.414Z,94132.71
2023-09-28T02:37:57.011Z,94132.34
2023-09-28T02:38:30.893Z,94132.77
2023-09-28T02:39:08.774Z,94134.41
2023-09-28T02:39:42.579Z,94133.27
2023-09-28T02:40:17.256Z,94134.44
2023-09-28T02:40:50.732Z,94133.55
2023-09-28T02:41:24.512Z,94133.84
2023-09-28T02:41:57.971Z,94134.94
2023-09-28T02:42:31.436Z,94137.34
2023-09-28T02:43:04.914Z,94133.04
2023-09-28T02:43:38.408Z,94132.36
2023-09-28T02:44:11.997Z,94135.02
2023-09-28T02:44:45.936Z,94135.31
2023-09-28T02:45:19.350Z,94135.32
2023-09-28T02:45:53.297Z,94136.57
2023-09-28T02:46:27.924Z,94139.16
2023-09-28T02:47:01.821Z,94138.46
2023-09-28T02:47:35.704Z,94135.64
2023-09-28T02:48:09.986Z,94136.80
2023-09-28T02:48:43.494Z,94134.25
2023-09-28T02:49:16.893Z,94134.83
2023-09-28T02:49:50.429Z,94138.15
2023-09-28T02:50:23.864Z,94138.52
2023-09-28T02:50:57.246Z,94140.02
2023-09-28T02:51:30.610Z,94137.39
2023-09-28T02:52:07.589Z,94136.48
2023-09-28T02:52:42.644Z,94137.21
2023-09-28T02:53:16.356Z,94133.73
2023-09-28T02:53:50.299Z,94136.00
2023-09-28T02:54:23.716Z,94140.06
2023-09-28T02:54:57.126Z,94140.60
2023-09-28T02:55:30.444Z,94138.90
2023-09-28T02:56:07.028Z,94137.37
2023-09-28T02:56:40.683Z,94136.42
2023-09-28T02:57:14.564Z,94133.42
2023-09-28T02:57:49.035Z,94132.90
2023-09-28T02:58:23.666Z,94134.92
2023-09-28T02:58:58.314Z,94135.92
2023-09-28T02:59:32.732Z,94133.13
2023-09-28T03:00:25.165Z,94134.15
2023-09-28T03:00:59.129Z,94131.86
2023-09-28T03:01:32.536Z,94134.45
2023-09-28T03:02:06.786Z,94131.48
2023-09-28T03:02:40.409Z,94130.56
2023-09-28T03:03:13.980Z,94130.81
2023-09-28T03:03:47.327Z,94128.77
2023-09-28T03:04:20.571Z,94133.85
2023-09-28T03:04:54.212Z,94132.73
2023-09-28T03:05:29.653Z,94134.73
2023-09-28T03:06:05.926Z,94133.42
2023-09-28T03:06:41.795Z,94134.17
2023-09-28T03:07:15.220Z,94138.80
2023-09-28T03:07:49.205Z,94131.58
2023-09-28T03:08:25.616Z,94132.39
2023-09-28T03:08:58.986Z,94138.09
2023-09-28T03:09:34.207Z,94137.98
2023-09-28T03:10:08.471Z,94133.39
2023-09-28T03:10:46.003Z,94135.70
2023-09-28T03:11:19.523Z,94137.89
2023-09-28T03:11:52.932Z,94137.42
2023-09-28T03:12:26.354Z,94139.79
2023-09-28T03:12:59.906Z,94139.35
2023-09-28T03:13:33.559Z,94139.20
2023-09-28T03:14:09.216Z,94143.85
2023-09-28T03:14:43.372Z,94144.79
2023-09-28T03:15:17.903Z,94145.11
2023-09-28T03:15:51.348Z,94146.62
2023-09-28T03:16:24.786Z,94145.04
2023-09-28T03:16:58.348Z,94149.45
2023-09-28T03:17:31.688Z,94144.61
2023-09-28T03:18:05.673Z,94146.83
2023-09-28T03:18:39.475Z,94145.65
2023-09-28T03:19:12.859Z,94148.65
2023-09-28T03:19:46.274Z,94148.11
2023-09-28T03:20:20.884Z,94147.71
2023-09-28T03:20:54.714Z,94145.36
2023-09-28T03:21:31.010Z,94145.86
2023-09-28T03:22:04.204Z,94149.35
2023-09-28T03:22:37.630Z,94153.02
2023-09-28T03:23:10.880Z,94152.38
2023-09-28T03:23:44.425Z,94153.85
2023-09-28T03:24:17.785Z,94152.82
2023-09-28T03:24:51.131Z,94152.15
2023-09-28T03:25:24.473Z,94151.60
2023-09-28T03:25:57.827Z,94152.36
2023-09-28T03:26:31.871Z,94147.07
2023-09-28T03:27:10.896Z,94154.54
2023-09-28T03:27:46.631Z,94152.98
2023-09-28T03:28:20.177Z,94153.60
2023-09-28T03:28:53.739Z,94150.76
2023-09-28T03:29:27.124Z,94150.13
2023-09-28T03:30:00.559Z,94152.43
2023-09-28T03:30:34.058Z,94152.80
2023-09-28T03:31:07.821Z,94151.34
2023-09-28T03:31:41.708Z,94155.06
2023-09-28T03:32:15.178Z,94150.09
2023-09-28T03:32:49.226Z,94158.00
2023-09-28T03:33:22.677Z,94157.01
2023-09-28T03:33:56.708Z,94159.55
2023-09-28T03:34:30.078Z,94159.38
2023-09-28T03:35:05.553Z,94162.02
2023-09-28T03:35:38.863Z,94161.49
2023-09-28T03:36:14.081Z,94156.61
2023-09-28T03:36:47.707Z,94159.85
2023-09-28T03:37:21.073Z,94156.97
2023-09-28T03:37:55.766Z,94157.64
2023-09-28T03:38:29.312Z,94154.77
2023-09-28T03:39:02.648Z,94153.63
2023-09-28T03:39:36.157Z,94156.95
2023-09-28T03:40:12.230Z,94156.27
2023-09-28T03:40:46.091Z,94154.79
2023-09-28T03:41:19.645Z,94156.79
2023-09-28T03:41:53.012Z,94151.65
2023-09-28T03:42:27.373Z,94151.65
2023-09-28T03:43:00.934Z,94153.18
2023-09-28T03:43:34.900Z,94150.79
2023-09-28T03:44:08.857Z,94149.16
2023-09-28T03:44:42.198Z,94151.95
2023-09-28T03:45:17.793Z,94153.44
2023-09-28T03:45:51.417Z,94153.34
2023-09-28T03:46:25.062Z,94150.93
2023-09-28T03:46:58.600Z,94157.96
2023-09-28T03:47:34.777Z,94151.91
2023-09-28T03:48:08.186Z,94153.97
2023-09-28T03:48:41.489Z,94156.74
2023-09-28T03:49:14.954Z,94154.02
2023-09-28T03:49:48.493Z,94152.49
2023-09-28T03:50:24.192Z,94153.61
2023-09-28T03:50:58.308Z,94148.48
2023-09-28T03:51:31.772Z,94152.00
2023-09-28T03:52:05.122Z,94150.75
2023-09-28T03:52:39.091Z,94148.19
2023-09-28T03:53:12.500Z,94145.00
2023-09-28T03:53:45.828Z,94150.48
2023-09-28T03:54:19.482Z,94149.55
2023-09-28T03:54:53.637Z,94151.08
2023-09-28T03:55:26.973Z,94149.25
2023-09-28T03:56:00.495Z,94149.96
2023-09-28T03:56:34.032Z,94150.21
2023-09-28T03:57:07.480Z,94148.94
2023-09-28T03:57:42.518Z,94150.02
2023-09-28T03:58:17.110Z,94147.73
2023-09-28T03:58:53.222Z,94151.89
2023-09-28T03:59:26.712Z,94152.59
2023-09-28T04:00:00.220Z,94149.53
2023-09-28T04:00:33.490Z,94151.42
2023-09-28T04:01:09.004Z,94149.98
2023-09-28T04:01:46.281Z,94147.61
2023-09-28T04:02:19.875Z,94150.69
2023-09-28T04:02:55.710Z,94150.73
2023-09-28T04:03:29.973Z,94147.77
2023-09-28T04:04:06.650Z,94153.84
2023-09-28T04:04:40.090Z,94149.14
2023-09-28T04:05:13.510Z,94151.90
2023-09-28T04:05:46.889Z,94151.10
2023-09-28T04:06:20.193Z,94152.70
2023-09-28T04:06:53.560Z,94155.17
2023-09-28T04:07:26.931Z,94154.23
2023-09-28T04:08:00.492Z,94151.05
2023-09-28T04:08:33.999Z,94156.36
2023-09-28T04:09:09.209Z,94154.33
2023-09-28T04:09:42.585Z,94158.14
2023-09-28T04:10:16.040Z,94156.98
2023-09-28T04:10:51.467Z,94157.34
2023-09-28T04:11:24.906Z,94157.02
2023-09-28T04:11:58.287Z,94160.33
2023-09-28T04:12:31.912Z,94160.95
2023-09-28T04:13:05.279Z,94160.55
2023-09-28T04:13:38.663Z,94159.67
2023-09-28T04:14:12.241Z,94159.98
2023-09-28T04:14:45.689Z,94161.64
2023-09-28T04:15:19.114Z,94160.29
2023-09-28T04:15:52.688Z,94162.95
2023-09-28T04:16:26.010Z,94161.73
2023-09-28T04:16:59.488Z,94159.46
2023-09-28T04:17:35.740Z,94161.73
2023-09-28T04:18:09.360Z,94160.54
2023-09-28T04:18:42.748Z,94161.61
2023-09-28T04:19:16.059Z,94162.10
2023-09-28T04:19:50.227Z,94164.04
2023-09-28T04:20:23.971Z,94166.30
2023-09-28T04:20:57.806Z,94163.39
2023-09-28T04:21:31.882Z,94165.82
2023-09-28T04:22:05.211Z,94167.46
2023-09-28T04:22:38.568Z,94165.31
2023-09-28T04:23:14.047Z,94165.65
2023-09-28T04:23:47.492Z,94165.49
2023-09-28T04:24:20.820Z,94166.02
2023-09-28T04:24:54.273Z,94167.19
2023-09-28T04:25:30.451Z,94168.78
2023-09-28T04:26:06.978Z,94161.81
2023-09-28T04:26:41.917Z,94168.23
2023-09-28T04:27:19.029Z,94167.30
2023-09-28T04:27:53.873Z,94166.23
2023-09-28T04:28:27.456Z,94167.76
2023-09-28T04:29:00.909Z,94167.41
2023-09-28T04:29:34.947Z,94159.60
2023-09-28T04:30:10.278Z,94169.08
2023-09-28T04:30:44.874Z,94169.69
2023-09-28T04:31:18.562Z,94174.51
2023-09-28T04:31:52.592Z,94169.77
2023-09-28T04:32:26.184Z,94173.83
2023-09-28T04:32:59.650Z,94172.14
2023-09-28T04:33:33.230Z,94172.27
2023-09-28T04:34:08.683Z,94170.35
2023-09-28T04:34:42.117Z,94175.48
2023-09-28T04:35:15.882Z,94174.73
2023-09-28T04:35:51.073Z,94172.45
2023-09-28T04:36:25.498Z,94171.33
2023-09-28T04:36:59.326Z,94174.90
2023-09-28T04:37:32.817Z,94174.95
2023-09-28T04:38:06.360Z,94171.64
2023-09-28T04:38:39.884Z,94173.65
2023-09-28T04:39:13.233Z,94171.41
2023-09-28T04:39:46.636Z,94174.23
2023-09-28T04:40:25.828Z,94173.93
2023-09-28T04:41:02.186Z,94176.01
2023-09-28T04:41:35.875Z,94175.23
2023-09-28T04:42:09.265Z,94175.48
2023-09-28T04:42:43.930Z,94174.32
2023-09-28T04:43:17.336Z,94172.95
2023-09-28T04:43:50.706Z,94173.80
2023-09-28T04:44:24.846Z,94174.66
2023-09-28T04:44:58.286Z,94165.48
2023-09-28T04:45:31.636Z,94176.90
2023-09-28T04:46:06.880Z,94175.31
2023-09-28T04:46:40.265Z,94177.59
2023-09-28T04:47:14.266Z,94175.50
2023-09-28T04:47:48.620Z,94178.98
2023-09-28T04:48:22.758Z,94176.97
2023-09-28T04:48:56.432Z,94179.85
2023-09-28T04:49:29.805Z,94180.27
2023-09-28T04:50:05.014Z,94184.98
2023-09-28T04:50:38.500Z,94183.23
2023-09-28T04:51:12.121Z,94180.48
2023-09-28T04:51:45.896Z,94181.40
2023-09-28T04:52:19.450Z,94183.33
2023-09-28T04:52:52.790Z,94187.39
2023-09-28T04:53:26.415Z,94184.80
2023-09-28T04:54:04.223Z,94186.22
2023-09-28T04:54:38.078Z,94190.95
2023-09-28T04:55:11.852Z,94187.45
2023-09-28T04:55:45.204Z,94189.12
2023-09-28T04:56:19.369Z,94190.81
2023-09-28T04:56:52.908Z,94187.73
2023-09-28T04:57:26.930Z,94189.67
2023-09-28T04:58:00.398Z,94188.23
2023-09-28T04:58:33.854Z,94185.46
2023-09-28T04:59:07.334Z,94186.11
2023-09-28T04:59:41.751Z,94190.02
2023-09-28T05:00:17.968Z,94182.80
2023-09-28T05:00:51.689Z,94184.91
2023-09-28T05:01:25.350Z,94183.81
2023-09-28T05:01:58.938Z,94182.80
2023-09-28T05:02:32.308Z,94187.14
2023-09-28T05:03:06.310Z,94184.55
2023-09-28T05:03:39.738Z,94185.98
2023-09-28T05:04:14.469Z,94185.52
2023-09-28T05:04:47.890Z,94190.61
2023-09-28T05:05:21.691Z,94184.77
2023-09-28T05:05:56.677Z,94183.36
2023-09-28T05:06:30.122Z,94185.73
2023-09-28T05:07:04.289Z,94186.13
2023-09-28T05:07:37.741Z,94186.47
2023-09-28T05:08:13.766Z,94185.16
2023-09-28T05:08:47.499Z,94185.50
2023-09-28T05:09:20.816Z,94186.73
2023-09-28T05:09:54.225Z,94184.90
2023-09-28T05:10:27.864Z,94188.47
2023-09-28T05:11:01.263Z,94187.30
2023-09-28T05:11:34.707Z,94184.52
2023-09-28T05:12:08.251Z,94185.73
2023-09-28T05:12:41.603Z,94186.91
2023-09-28T05:13:15.480Z,94187.29
2023-09-28T05:13:49.333Z,94185.27
2023-09-28T05:14:25.578Z,94189.82
2023-09-28T05:14:59.043Z,94189.75
2023-09-28T05:15:32.533Z,94192.04
2023-09-28T05:16:05.986Z,94196.79
2023-09-28T05:16:39.335Z,94196.39
2023-09-28T05:17:12.773Z,94197.75
2023-09-28T05:17:46.375Z,94196.70
2023-09-28T05:18:19.739Z,94198.30
2023-09-28T05:18:53.150Z,94198.35
2023-09-28T05:19:27.231Z,94196.92
2023-09-28T05:20:00.647Z,94193.25
2023-09-28T05:20:34.242Z,94195.87
2023-09-28T05:21:07.600Z,94197.92
2023-09-28T05:21:41.091Z,94197.03
2023-09-28T05:22:14.701Z,94196.77
2023-09-28T05:22:48.108Z,94200.93
2023-09-28T05:23:21.749Z,94199.02
2023-09-28T05:23:55.336Z,94197.27
2023-09-28T05:24:28.918Z,94201.14
2023-09-28T05:25:02.655Z,94202.42
2023-09-28T05:25:36.185Z,94200.11
2023-09-28T05:26:09.719Z,94200.58
2023-09-28T05:26:43.603Z,94201.02
2023-09-28T05:27:17.014Z,94198.43
2023-09-28T05:27:50.751Z,94200.64
2023-09-28T05:28:24.233Z,94202.23
2023-09-28T05:28:59.735Z,94199.30
2023-09-28T05:29:33.071Z,94200.67
2023-09-28T05:30:07.254Z,94199.06
2023-09-28T05:30:40.659Z,94202.10
2023-09-28T05:31:14.196Z,94203.86
2023-09-28T05:31:48.617Z,94204.02
2023-09-28T05:32:22.265Z,94201.64
2023-09-28T05:32:55.844Z,94199.02
2023-09-28T05:33:29.310Z,94198.20
2023-09-28T05:34:02.689Z,94201.95
2023-09-28T05:34:36.745Z,94199.92
2023-09-28T05:35:10.464Z,94199.36
2023-09-28T05:35:44.105Z,94198.46
2023-09-28T05:36:17.447Z,94197.73
2023-09-28T05:36:50.782Z,94203.37
2023-09-28T05:37:24.199Z,94200.36
2023-09-28T05:37:57.631Z,94196.95
2023-09-28T05:38:31.024Z,94202.29
2023-09-28T05:39:04.886Z,94201.98
2023-09-28T05:39:39.052Z,94201.36
2023-09-28T05:40:13.163Z,94202.69
2023-09-28T05:40:46.543Z,94203.11
2023-09-28T05:41:20.042Z,94204.52
2023-09-28T05:41:53.510Z,94202.75
2023-09-28T05:42:26.866Z,94201.50
2023-09-28T05:43:00.366Z,94200.55
2023-09-28T05:43:33.762Z,94200.76
2023-09-28T05:44:11.211Z,94205.02
2023-09-28T05:44:46.385Z,94205.52
2023-09-28T05:45:19.907Z,94204.63
2023-09-28T05:45:53.351Z,94206.21
2023-09-28T05:46:27.192Z,94204.56
2023-09-28T05:47:01.299Z,94205.63
2023-09-28T05:47:36.220Z,94205.79
2023-09-28T05:48:09.740Z,94206.38
2023-09-28T05:48:43.200Z,94207.64
2023-09-28T05:49:17.811Z,94205.32
2023-09-28T05:49:53.674Z,94203.85
2023-09-28T05:50:27.145Z,94203.91
2023-09-28T05:51:00.584Z,94210.61
2023-09-28T05:51:34.596Z,94203.51
2023-09-28T05:52:07.978Z,94210.02
2023-09-28T05:52:41.705Z,94208.95
2023-09-28T05:53:15.091Z,94210.36
2023-09-28T05:53:49.175Z,94212.17
2023-09-28T05:54:22.805Z,94212.82
2023-09-28T05:54:56.106Z,94212.33
2023-09-28T05:55:29.482Z,94212.41
2023-09-28T05:56:04.759Z,94213.26
2023-09-28T05:56:38.044Z,94213.57
2023-09-28T05:57:11.747Z,94215.02
2023-09-28T05:57:45.235Z,94211.02
2023-09-28T05:58:18.800Z,94219.50
2023-09-28T05:58:52.294Z,94217.21
2023-09-28T05:59:25.989Z,94216.70
2023-09-28T05:59:59.500Z,94217.91
2023-09-28T06:00:32.911Z,94218.77
2023-09-28T06:01:09.503Z,94216.18
2023-09-28T06:01:43.183Z,94221.98
2023-09-28T06:02:16.688Z,94222.33
2023-09-28T06:02:50.124Z,94221.79
2023-09-28T06:03:23.730Z,94223.52
2023-09-28T06:03:57.587Z,94225.22
2023-09-28T06:04:31.192Z,94227.30
2023-09-28T06:05:04.811Z,94223.80
2023-09-28T06:05:38.433Z,94228.44
2023-09-28T06:06:19.445Z,94226.35
2023-09-28T06:06:53.134Z,94224.36
2023-09-28T06:07:26.601Z,94226.45
2023-09-28T06:08:01.359Z,94229.30
2023-09-28T06:08:35.146Z,94229.71
2023-09-28T06:09:08.650Z,94227.72
2023-09-28T06:09:42.831Z,94228.74
2023-09-28T06:10:18.995Z,94226.35
2023-09-28T06:11:06.656Z,94227.57
2023-09-28T06:11:47.342Z,94229.30
2023-09-28T06:12:20.720Z,94226.44
2023-09-28T06:12:54.167Z,94226.63
2023-09-28T06:13:27.671Z,94231.66
2023-09-28T06:14:08.279Z,94227.89
2023-09-28T06:14:42.041Z,94223.37
2023-09-28T06:15:15.522Z,94223.85
2023-09-28T06:15:49.082Z,94223.20
2023-09-28T06:16:22.651Z,94228.75
2023-09-28T06:16:56.324Z,94224.26
2023-09-28T06:17:29.936Z,94226.48
2023-09-28T06:18:03.677Z,94224.02
2023-09-28T06:18:37.563Z,94227.48
2023-09-28T06:19:13.551Z,94222.30
2023-09-28T06:20:29.112Z,94222.00
2023-09-28T06:21:02.630Z,94224.53
2023-09-28T06:21:36.812Z,94224.98
2023-09-28T06:22:11.155Z,94223.65
2023-09-28T06:22:44.721Z,94223.09
2023-09-28T06:23:18.554Z,94221.54
2023-09-28T06:23:52.140Z,94218.77
2023-09-28T06:24:26.952Z,94221.48
2023-09-28T06:25:00.531Z,94222.05
2023-09-28T06:25:34.153Z,94227.51
2023-09-28T06:26:07.848Z,94221.92
2023-09-28T06:26:43.772Z,94224.15
2023-09-28T06:27:17.486Z,94224.19
2023-09-28T06:27:51.128Z,94223.98
2023-09-28T06:28:27.657Z,94228.02
2023-09-28T06:29:01.792Z,94224.13
2023-09-28T06:29:35.574Z,94224.77
2023-09-28T06:30:09.742Z,94223.20
2023-09-28T06:30:43.274Z,94220.89
2023-09-28T06:31:20.302Z,94224.23
2023-09-28T06:31:53.824Z,94224.45
2023-09-28T06:32:27.490Z,94217.32
2023-09-28T06:33:01.226Z,94226.94
2023-09-28T06:33:34.847Z,94216.30
2023-09-28T06:34:08.867Z,94220.77
2023-09-28T06:34:42.325Z,94223.02
2023-09-28T06:35:15.981Z,94224.19
2023-09-28T06:35:49.689Z,94222.48
2023-09-28T06:36:41.273Z,94224.66
2023-09-28T06:37:16.418Z,94221.23
2023-09-28T06:37:51.212Z,94220.14
2023-09-28T06:38:24.746Z,94221.15
2023-09-28T06:38:58.221Z,94218.66
2023-09-28T06:39:31.799Z,94219.35
2023-09-28T06:40:05.727Z,94220.68
2023-09-28T06:40:49.965Z,94224.23
2023-09-28T06:41:23.950Z,94225.02
2023-09-28T06:42:05.521Z,94224.40
2023-09-28T06:42:46.405Z,94223.29
2023-09-28T06:43:19.975Z,94221.54
2023-09-28T06:43:53.493Z,94213.36
2023-09-28T06:44:28.304Z,94225.13
2023-09-28T06:45:01.812Z,94227.45
2023-09-28T06:45:35.498Z,94224.39
2023-09-28T06:46:09.965Z,94225.76
2023-09-28T06:46:46.208Z,94225.23